createdAt,value
2017-10-23T00:01:24.598Z,91.89
2017-10-23T00:03:52.129Z,91.93
2017-10-23T00:06:19.657Z,92.06
2017-10-23T00:08:47.207Z,92.28
2017-10-23T00:11:15.532Z,91.88
2017-10-23T00:13:43.066Z,91.61
2017-10-23T00:16:10.593Z,91.88
2017-10-23T00:18:38.164Z,91.63
2017-10-23T00:21:06.238Z,91.81
2017-10-23T00:23:33.773Z,91.22
2017-10-23T00:26:01.303Z,91.92
2017-10-23T00:28:28.829Z,91.12
2017-10-23T00:30:56.358Z,90.64
2017-10-23T00:33:23.881Z,90.64
2017-10-23T00:35:51.457Z,91.38
2017-10-23T00:38:19.566Z,91.55
2017-10-23T00:40:47.098Z,91.08
2017-10-23T00:43:14.622Z,92.08
2017-10-23T00:45:42.157Z,91.13
2017-10-23T00:48:09.684Z,90.81
2017-10-23T00:50:37.256Z,91.44
2017-10-23T00:53:05.557Z,92.05
2017-10-23T00:55:33.085Z,91.29
2017-10-23T00:58:00.616Z,91.14
2017-10-23T01:00:28.198Z,90.63
2017-10-23T01:02:56.380Z,90.30
2017-10-23T01:05:24.802Z,90.07
2017-10-23T01:07:52.333Z,90.18
2017-10-23T01:10:19.861Z,90.54
2017-10-23T01:12:48.300Z,90.33
2017-10-23T01:15:15.832Z,90.21
2017-10-23T01:17:44.138Z,90.61
2017-10-23T01:20:11.675Z,90.04
2017-10-23T01:22:39.209Z,90.61
2017-10-23T01:25:06.779Z,90.32
2017-10-23T01:27:34.301Z,89.92
2017-10-23T01:30:01.872Z,90.09
2017-10-23T01:32:29.404Z,89.83
2017-10-23T01:34:57.517Z,90.62
2017-10-23T01:37:25.057Z,90.54
2017-10-23T01:39:52.585Z,90.13
2017-10-23T01:42:20.109Z,89.83
2017-10-23T01:44:47.696Z,89.86
2017-10-23T01:47:15.230Z,90.43
2017-10-23T01:49:42.762Z,89.69
2017-10-23T01:52:10.294Z,89.87
2017-10-23T01:54:38.605Z,90.01
2017-10-23T01:57:06.944Z,90.47
2017-10-23T01:59:34.473Z,90.74
2017-10-23T02:02:02.038Z,90.18
2017-10-23T02:04:30.349Z,90.04
2017-10-23T02:06:57.876Z,90.28
2017-10-23T02:09:25.680Z,90.31
2017-10-23T02:11:53.211Z,90.38
2017-10-23T02:14:21.675Z,90.48
2017-10-23T02:16:49.209Z,90.23
2017-10-23T02:19:16.748Z,90.01
2017-10-23T02:21:44.289Z,90.08
2017-10-23T02:24:11.857Z,90.00
2017-10-23T02:26:39.391Z,90.03
2017-10-23T02:29:06.956Z,89.94
2017-10-23T02:31:35.295Z,89.99
2017-10-23T02:34:02.869Z,90.56
2017-10-23T02:36:30.413Z,89.82
2017-10-23T02:38:57.949Z,90.53
2017-10-23T02:41:25.481Z,90.91
2017-10-23T02:43:53.044Z,91.08
2017-10-23T02:46:20.580Z,91.68
2017-10-23T02:48:48.114Z,91.30
2017-10-23T02:51:15.695Z,91.43
2017-10-23T02:53:43.234Z,91.68
2017-10-23T02:56:10.812Z,91.04
2017-10-23T02:58:38.361Z,90.43
2017-10-23T03:01:05.901Z,90.85
2017-10-23T03:03:33.439Z,90.87
2017-10-23T03:06:01.764Z,90.71
2017-10-23T03:08:29.339Z,90.41
2017-10-23T03:10:56.888Z,91.10
2017-10-23T03:13:24.460Z,90.42
2017-10-23T03:15:51.979Z,90.53
2017-10-23T03:18:20.295Z,90.80
2017-10-23T03:20:47.836Z,90.98
2017-10-23T03:23:16.154Z,90.53
2017-10-23T03:25:43.688Z,90.93
2017-10-23T03:28:11.212Z,90.60
2017-10-23T03:30:39.577Z,91.15
2017-10-23T03:33:07.113Z,91.15
2017-10-23T03:35:35.577Z,90.74
2017-10-23T03:38:03.112Z,90.78
2017-10-23T03:40:31.561Z,90.61
2017-10-23T03:42:59.094Z,90.86
2017-10-23T03:45:27.543Z,90.60
2017-10-23T03:47:55.075Z,90.53
2017-10-23T03:50:22.611Z,90.76
2017-10-23T03:52:50.817Z,90.81
2017-10-23T03:55:19.292Z,90.87
2017-10-23T03:57:46.873Z,91.15
2017-10-23T04:00:14.411Z,90.82
2017-10-23T04:02:42.758Z,90.57
2017-10-23T04:05:11.204Z,90.76
2017-10-23T04:07:38.771Z,91.16
2017-10-23T04:10:07.121Z,90.95
2017-10-23T04:12:34.669Z,90.03
2017-10-23T04:15:03.014Z,89.84
2017-10-23T04:17:30.554Z,89.98
2017-10-23T04:19:58.136Z,90.05
2017-10-23T04:22:26.474Z,90.23
2017-10-23T04:24:54.020Z,89.83
2017-10-23T04:27:22.294Z,89.71
2017-10-23T04:29:49.823Z,90.00
2017-10-23T04:32:18.150Z,90.62
2017-10-23T04:34:45.681Z,90.47
2017-10-23T04:37:13.210Z,90.30
2017-10-23T04:39:40.745Z,90.18
2017-10-23T04:42:09.067Z,90.18
2017-10-23T04:44:36.634Z,90.43
2017-10-23T04:47:04.161Z,90.16
2017-10-23T04:49:31.702Z,90.41
2017-10-23T04:51:59.271Z,90.16
2017-10-23T04:54:26.804Z,90.29
2017-10-23T04:56:54.340Z,90.12
2017-10-23T04:59:21.905Z,89.69
2017-10-23T05:01:49.476Z,90.27
2017-10-23T05:04:17.018Z,90.56
2017-10-23T05:06:44.547Z,91.03
2017-10-23T05:09:12.089Z,90.24
2017-10-23T05:11:39.620Z,90.97
2017-10-23T05:14:07.153Z,90.71
2017-10-23T05:16:34.717Z,91.08
2017-10-23T05:19:02.248Z,91.19
2017-10-23T05:21:29.788Z,91.45
2017-10-23T05:23:57.324Z,91.40
2017-10-23T05:26:24.865Z,91.73
2017-10-23T05:28:53.431Z,92.38
2017-10-23T05:31:21.435Z,92.85
2017-10-23T05:33:48.968Z,92.68
2017-10-23T05:36:16.500Z,92.96
2017-10-23T05:38:44.060Z,92.91
2017-10-23T05:41:12.372Z,92.75
2017-10-23T05:43:39.906Z,92.49
2017-10-23T05:46:07.465Z,92.58
2017-10-23T05:48:34.996Z,92.93
2017-10-23T05:51:02.532Z,92.46
2017-10-23T05:53:30.064Z,92.64
2017-10-23T05:55:58.525Z,93.39
2017-10-23T05:58:26.056Z,93.82
2017-10-23T06:00:54.376Z,93.43
2017-10-23T06:03:21.910Z,93.51
2017-10-23T06:05:49.454Z,93.99
2017-10-23T06:08:17.917Z,93.87
2017-10-23T06:10:45.743Z,93.48
2017-10-23T06:13:14.670Z,93.91
2017-10-23T06:15:43.131Z,94.51
2017-10-23T06:18:10.662Z,94.31
2017-10-23T06:20:39.092Z,94.09
2017-10-23T06:23:06.676Z,93.93
2017-10-23T06:25:35.119Z,94.14
2017-10-23T06:28:02.688Z,94.36
2017-10-23T06:30:30.283Z,93.72
2017-10-23T06:32:57.822Z,93.21
2017-10-23T06:35:26.133Z,93.04
2017-10-23T06:37:53.660Z,92.28
2017-10-23T06:40:21.224Z,92.59
2017-10-23T06:42:49.633Z,92.36
2017-10-23T06:45:17.203Z,91.34
2017-10-23T06:47:46.268Z,92.17
2017-10-23T06:50:13.803Z,91.67
2017-10-23T06:52:42.248Z,90.92
2017-10-23T06:55:09.779Z,91.22
2017-10-23T06:57:38.104Z,91.35
2017-10-23T07:00:05.641Z,91.15
2017-10-23T07:02:34.139Z,90.91
2017-10-23T07:05:01.687Z,90.52
2017-10-23T07:07:30.038Z,90.91
2017-10-23T07:09:57.638Z,89.48
2017-10-23T07:12:25.970Z,90.49
2017-10-23T07:14:53.508Z,90.24
2017-10-23T07:17:21.047Z,89.15
2017-10-23T07:19:49.386Z,89.07
2017-10-23T07:22:17.929Z,88.15
2017-10-23T07:24:48.120Z,89.65
2017-10-23T07:27:18.630Z,87.42
2017-10-23T07:29:47.624Z,87.14
2017-10-23T07:32:16.227Z,86.02
2017-10-23T07:34:43.773Z,87.01
2017-10-23T07:37:12.004Z,85.58
2017-10-23T07:39:39.568Z,85.33
2017-10-23T07:42:08.003Z,86.39
2017-10-23T07:44:35.581Z,85.64
2017-10-23T07:47:03.912Z,85.35
2017-10-23T07:49:31.464Z,85.96
2017-10-23T07:51:58.997Z,84.47
2017-10-23T07:54:27.337Z,83.34
2017-10-23T07:56:54.883Z,84.10
2017-10-23T07:59:22.422Z,85.87
2017-10-23T08:01:49.953Z,83.74
2017-10-23T08:04:18.117Z,84.41
2017-10-23T08:06:46.549Z,84.64
2017-10-23T08:09:14.101Z,84.27
2017-10-23T08:11:42.357Z,83.65
2017-10-23T08:14:09.901Z,83.59
2017-10-23T08:16:37.436Z,83.93
2017-10-23T08:19:05.896Z,84.75
2017-10-23T08:21:33.428Z,85.24
2017-10-23T08:24:00.999Z,85.74
2017-10-23T08:26:28.554Z,84.73
2017-10-23T08:28:56.090Z,84.03
2017-10-23T08:31:24.428Z,83.50
2017-10-23T08:33:51.965Z,84.98
2017-10-23T08:36:19.501Z,82.12
2017-10-23T08:38:47.045Z,83.01
2017-10-23T08:41:14.592Z,82.07
2017-10-23T08:43:43.105Z,81.13
2017-10-23T08:46:10.652Z,81.47
2017-10-23T08:48:38.984Z,82.51
2017-10-23T08:51:06.508Z,80.24
2017-10-23T08:53:34.046Z,80.55
2017-10-23T08:56:02.263Z,79.66
2017-10-23T08:58:31.418Z,80.52
2017-10-23T09:00:59.736Z,80.52
2017-10-23T09:03:27.284Z,79.95
2017-10-23T09:05:54.818Z,79.99
2017-10-23T09:08:23.161Z,78.08
2017-10-23T09:10:50.709Z,78.80
2017-10-23T09:13:18.292Z,77.87
2017-10-23T09:15:45.827Z,78.38
2017-10-23T09:18:14.260Z,78.18
2017-10-23T09:20:41.798Z,79.43
2017-10-23T09:23:09.357Z,76.53
2017-10-23T09:25:36.890Z,77.77
2017-10-23T09:28:04.470Z,77.48
2017-10-23T09:30:32.308Z,78.65
2017-10-23T09:33:00.760Z,78.23
2017-10-23T09:35:28.300Z,80.09
2017-10-23T09:37:55.883Z,78.98
2017-10-23T09:40:23.429Z,79.44
2017-10-23T09:42:51.737Z,78.72
2017-10-23T09:45:19.272Z,78.87
2017-10-23T09:47:47.652Z,78.93
2017-10-23T09:50:15.556Z,77.99
2017-10-23T09:52:44.076Z,78.58
2017-10-23T09:55:11.611Z,78.52
2017-10-23T09:57:39.150Z,77.88
2017-10-23T10:00:07.458Z,78.53
2017-10-23T10:02:35.781Z,79.81
2017-10-23T10:05:03.328Z,79.53
2017-10-23T10:07:31.460Z,81.96
2017-10-23T10:09:58.998Z,81.38
2017-10-23T10:12:26.539Z,81.88
2017-10-23T10:14:54.073Z,82.21
2017-10-23T10:17:21.649Z,81.85
2017-10-23T10:19:49.184Z,81.76
2017-10-23T10:22:16.718Z,83.50
2017-10-23T10:24:44.262Z,84.01
2017-10-23T10:27:11.795Z,85.96
2017-10-23T10:29:39.336Z,87.27
2017-10-23T10:32:06.878Z,86.60
2017-10-23T10:34:34.460Z,87.18
2017-10-23T10:37:02.891Z,87.61
2017-10-23T10:39:30.707Z,86.16
2017-10-23T10:41:58.236Z,86.70
2017-10-23T10:44:25.765Z,85.90
2017-10-23T10:46:54.085Z,87.09
2017-10-23T10:49:22.447Z,87.98
2017-10-23T10:51:50.875Z,87.36
2017-10-23T10:54:18.407Z,87.80
2017-10-23T10:56:45.943Z,86.84
2017-10-23T10:59:13.488Z,89.87
2017-10-23T11:01:41.066Z,90.10
2017-10-23T11:04:08.591Z,88.87
2017-10-23T11:06:36.152Z,90.14
2017-10-23T11:09:03.742Z,89.73
2017-10-23T11:11:32.681Z,89.62
2017-10-23T11:14:01.946Z,89.27
2017-10-23T11:16:30.873Z,90.68
2017-10-23T11:18:59.189Z,89.99
2017-10-23T11:21:26.744Z,90.35
2017-10-23T11:23:54.270Z,90.45
2017-10-23T11:26:21.797Z,90.74
2017-10-23T11:28:49.326Z,91.13
2017-10-23T11:31:16.856Z,91.47
2017-10-23T11:33:44.385Z,90.11
2017-10-23T11:36:11.909Z,90.44
2017-10-23T11:38:40.342Z,89.41
2017-10-23T11:41:08.192Z,88.16
2017-10-23T11:43:36.684Z,89.54
2017-10-23T11:46:04.218Z,88.48
2017-10-23T11:48:32.811Z,89.24
2017-10-23T11:51:01.147Z,88.00
2017-10-23T11:53:29.464Z,89.06
2017-10-23T11:55:56.989Z,89.58
2017-10-23T11:58:25.471Z,89.54
2017-10-23T12:00:53.001Z,91.50
2017-10-23T12:03:20.685Z,92.18
2017-10-23T12:05:48.216Z,92.16
2017-10-23T12:08:15.750Z,90.89
2017-10-23T12:10:43.282Z,91.68
2017-10-23T12:13:10.809Z,91.37
2017-10-23T12:15:39.248Z,91.77
2017-10-23T12:18:07.437Z,90.42
2017-10-23T12:20:35.655Z,90.87
2017-10-23T12:23:03.202Z,91.57
2017-10-23T12:25:30.726Z,91.20
2017-10-23T12:27:59.042Z,90.78
2017-10-23T12:30:26.576Z,91.23
2017-10-23T12:32:54.118Z,91.50
2017-10-23T12:35:22.483Z,92.71
2017-10-23T12:37:50.046Z,91.68
2017-10-23T12:40:18.940Z,91.78
2017-10-23T12:42:47.390Z,91.37
2017-10-23T12:45:15.807Z,90.66
2017-10-23T12:47:43.357Z,90.30
2017-10-23T12:50:11.901Z,91.40
2017-10-23T12:52:39.440Z,91.47
2017-10-23T12:55:07.892Z,91.86
2017-10-23T12:57:36.222Z,90.86
2017-10-23T13:00:04.661Z,90.48
2017-10-23T13:02:32.980Z,92.54
2017-10-23T13:05:01.329Z,91.26
2017-10-23T13:07:29.565Z,91.87
2017-10-23T13:09:57.885Z,92.14
2017-10-23T13:12:26.240Z,92.88
2017-10-23T13:14:54.666Z,92.82
2017-10-23T13:17:23.133Z,92.19
2017-10-23T13:19:51.492Z,92.89
2017-10-23T13:22:19.921Z,93.29
2017-10-23T13:24:47.497Z,92.80
2017-10-23T13:27:15.981Z,91.78
2017-10-23T13:29:44.420Z,92.39
2017-10-23T13:32:12.773Z,92.89
2017-10-23T13:34:41.641Z,92.93
2017-10-23T13:37:09.956Z,91.76
2017-10-23T13:39:37.488Z,92.32
2017-10-23T13:42:05.075Z,93.12
2017-10-23T13:44:33.512Z,92.09
2017-10-23T13:47:01.089Z,92.87
2017-10-23T13:49:29.427Z,92.19
2017-10-23T13:51:56.961Z,92.50
2017-10-23T13:54:25.406Z,92.59
2017-10-23T13:56:52.945Z,91.97
2017-10-23T13:59:21.267Z,92.04
2017-10-23T14:01:48.811Z,92.58
2017-10-23T14:04:17.247Z,92.36
2017-10-23T14:06:44.781Z,92.19
2017-10-23T14:09:13.195Z,92.68
2017-10-23T14:11:41.284Z,92.20
2017-10-23T14:14:08.821Z,93.11
2017-10-23T14:16:36.360Z,92.78
2017-10-23T14:19:03.903Z,93.46
2017-10-23T14:21:31.462Z,93.62
2017-10-23T14:23:59.002Z,92.43
2017-10-23T14:26:26.546Z,92.59
2017-10-23T14:28:54.080Z,92.89
2017-10-23T14:31:22.328Z,92.54
2017-10-23T14:33:49.903Z,92.86
2017-10-23T14:36:17.445Z,93.24
2017-10-23T14:38:45.428Z,92.64
2017-10-23T14:41:13.086Z,92.30
2017-10-23T14:43:42.027Z,93.36
2017-10-23T14:46:09.568Z,93.08
2017-10-23T14:48:37.905Z,93.03
2017-10-23T14:51:06.647Z,93.36
2017-10-23T14:53:36.129Z,93.62
2017-10-23T14:56:03.690Z,93.82
2017-10-23T14:58:31.282Z,94.53
2017-10-23T15:00:58.824Z,94.06
2017-10-23T15:03:26.371Z,94.25
2017-10-23T15:05:53.912Z,93.92
2017-10-23T15:08:22.697Z,93.36
2017-10-23T15:10:51.153Z,94.12
2017-10-23T15:13:18.691Z,93.95
2017-10-23T15:15:46.237Z,94.63
2017-10-23T15:18:13.783Z,94.79
2017-10-23T15:20:41.637Z,94.74
2017-10-23T15:23:09.176Z,94.40
2017-10-23T15:25:36.717Z,94.29
2017-10-23T15:28:05.170Z,94.35
2017-10-23T15:30:32.711Z,93.91
2017-10-23T15:33:00.360Z,93.69
2017-10-23T15:35:28.807Z,93.50
2017-10-23T15:37:56.348Z,93.36
2017-10-23T15:40:23.927Z,94.22
2017-10-23T15:42:51.466Z,94.21
2017-10-23T15:45:19.835Z,93.93
2017-10-23T15:47:48.210Z,94.34
2017-10-23T15:50:16.818Z,94.67
2017-10-23T15:52:44.356Z,95.35
2017-10-23T15:55:12.598Z,95.84
2017-10-23T15:57:42.375Z,96.02
2017-10-23T16:00:09.967Z,96.31
2017-10-23T16:02:37.554Z,96.40
2017-10-23T16:05:05.780Z,96.58
2017-10-23T16:07:34.179Z,96.11
2017-10-23T16:10:01.727Z,95.85
2017-10-23T16:12:29.476Z,95.50
2017-10-23T16:14:57.073Z,95.68
2017-10-23T16:17:24.633Z,95.46
2017-10-23T16:19:53.168Z,95.38
2017-10-23T16:22:20.711Z,95.08
2017-10-23T16:24:49.160Z,94.88
2017-10-23T16:27:17.587Z,95.09
2017-10-23T16:29:45.166Z,94.72
2017-10-23T16:32:12.706Z,94.42
2017-10-23T16:34:42.645Z,95.09
2017-10-23T16:37:13.208Z,95.49
2017-10-23T16:39:41.548Z,94.81
2017-10-23T16:42:09.969Z,95.21
2017-10-23T16:44:37.508Z,95.60
2017-10-23T16:47:05.041Z,95.87
2017-10-23T16:49:33.404Z,96.04
2017-10-23T16:52:00.938Z,96.05
2017-10-23T16:54:29.307Z,95.88
2017-10-23T16:56:56.862Z,95.87
2017-10-23T16:59:25.303Z,95.82
2017-10-23T17:01:52.872Z,95.04
2017-10-23T17:04:20.414Z,95.24
2017-10-23T17:06:47.992Z,95.59
2017-10-23T17:09:16.076Z,95.89
2017-10-23T17:11:43.669Z,96.02
2017-10-23T17:14:12.047Z,96.05
2017-10-23T17:16:39.580Z,96.02
2017-10-23T17:19:07.119Z,95.84
2017-10-23T17:21:35.134Z,95.98
2017-10-23T17:24:03.606Z,95.67
2017-10-23T17:26:31.968Z,95.44
2017-10-23T17:28:59.552Z,95.96
2017-10-23T17:31:27.082Z,96.56
2017-10-23T17:33:55.629Z,95.91
2017-10-23T17:36:24.989Z,95.89
2017-10-23T17:38:53.162Z,96.34
2017-10-23T17:41:20.702Z,96.63
2017-10-23T17:43:48.240Z,96.48
2017-10-23T17:46:16.582Z,95.91
2017-10-23T17:48:45.032Z,96.68
2017-10-23T17:51:12.620Z,95.95
2017-10-23T17:53:40.231Z,96.45
2017-10-23T17:56:09.119Z,95.91
2017-10-23T17:58:36.722Z,96.26
2017-10-23T18:01:04.803Z,95.79
2017-10-23T18:03:32.386Z,96.38
2017-10-23T18:05:59.975Z,96.28
2017-10-23T18:08:27.571Z,96.31
2017-10-23T18:10:55.143Z,96.06
2017-10-23T18:13:23.551Z,96.07
2017-10-23T18:15:51.096Z,96.04
2017-10-23T18:18:19.285Z,95.68
2017-10-23T18:20:46.827Z,94.85
2017-10-23T18:23:14.359Z,95.35
2017-10-23T18:25:42.799Z,95.74
2017-10-23T18:28:10.346Z,95.50
2017-10-23T18:30:37.941Z,95.32
2017-10-23T18:33:06.287Z,95.44
2017-10-23T18:35:34.355Z,95.68
2017-10-23T18:38:01.893Z,95.41
2017-10-23T18:40:29.430Z,95.75
2017-10-23T18:42:56.972Z,95.71
2017-10-23T18:45:24.520Z,95.23
2017-10-23T18:47:52.049Z,95.75
2017-10-23T18:50:20.249Z,95.57
2017-10-23T18:52:47.791Z,96.00
2017-10-23T18:55:16.350Z,96.34
2017-10-23T18:57:43.970Z,95.63
2017-10-23T19:00:11.579Z,95.89
2017-10-23T19:02:39.233Z,95.74
2017-10-23T19:05:06.831Z,95.89
2017-10-23T19:07:35.610Z,96.15
2017-10-23T19:10:03.205Z,96.47
2017-10-23T19:12:30.789Z,96.27
2017-10-23T19:14:58.342Z,96.56
2017-10-23T19:17:25.880Z,96.70
2017-10-23T19:19:53.416Z,96.74
2017-10-23T19:22:21.576Z,96.31
2017-10-23T19:24:49.979Z,96.32
2017-10-23T19:27:17.660Z,96.42
2017-10-23T19:29:46.012Z,96.87
2017-10-23T19:32:14.359Z,96.92
2017-10-23T19:34:41.972Z,97.03
2017-10-23T19:37:10.451Z,97.03
2017-10-23T19:39:39.133Z,96.58
2017-10-23T19:42:08.323Z,96.12
2017-10-23T19:44:36.886Z,96.81
2017-10-23T19:47:04.439Z,96.83
2017-10-23T19:49:32.026Z,96.95
2017-10-23T19:51:59.575Z,97.38
2017-10-23T19:54:27.169Z,97.11
2017-10-23T19:56:54.704Z,97.32
2017-10-23T19:59:22.243Z,97.18
2017-10-23T20:01:50.422Z,97.09
2017-10-23T20:04:17.956Z,96.78
2017-10-23T20:06:45.504Z,96.66
2017-10-23T20:09:13.043Z,96.61
2017-10-23T20:11:40.629Z,97.01
2017-10-23T20:14:08.167Z,96.97
2017-10-23T20:16:35.705Z,97.39
2017-10-23T20:19:03.249Z,97.26
2017-10-23T20:21:30.794Z,97.21
2017-10-23T20:23:58.328Z,96.75
2017-10-23T20:26:26.034Z,96.65
2017-10-23T20:28:53.578Z,96.79
2017-10-23T20:31:21.879Z,96.68
2017-10-23T20:33:49.421Z,96.84
2017-10-23T20:38:51.355Z,97.45
2017-10-23T20:41:18.918Z,97.31
2017-10-23T20:43:46.460Z,97.33
2017-10-23T20:46:14.006Z,96.38
2017-10-23T20:48:41.547Z,96.35
2017-10-23T20:51:09.105Z,96.83
2017-10-23T20:53:36.672Z,96.97
2017-10-23T20:56:04.242Z,96.92
2017-10-23T20:58:31.779Z,97.30
2017-10-23T21:00:59.365Z,97.44
2017-10-23T21:03:27.821Z,97.43
2017-10-23T21:05:56.865Z,97.44
2017-10-23T21:08:25.207Z,97.69
2017-10-23T21:10:53.651Z,97.49
2017-10-23T21:13:21.340Z,96.60
2017-10-23T21:15:48.905Z,96.46
2017-10-23T21:18:17.228Z,96.66
2017-10-23T21:20:45.187Z,96.45
2017-10-23T21:23:13.609Z,96.31
2017-10-23T21:25:41.148Z,96.75
2017-10-23T21:28:08.695Z,96.93
2017-10-23T21:30:36.235Z,96.74
2017-10-23T21:33:03.776Z,96.76
2017-10-23T21:35:31.348Z,96.70
2017-10-23T21:37:59.752Z,96.79
2017-10-23T21:40:29.893Z,96.66
2017-10-23T21:42:57.421Z,96.59
2017-10-23T21:45:24.974Z,96.82
2017-10-23T21:48:12.179Z,96.91
2017-10-23T21:50:40.722Z,97.14
2017-10-23T21:53:08.249Z,97.02
2017-10-23T21:55:35.792Z,96.87
2017-10-23T21:58:03.324Z,97.09
2017-10-23T22:00:30.856Z,97.17
2017-10-23T22:02:58.835Z,97.36
2017-10-23T22:05:26.365Z,97.44
2017-10-23T22:07:53.952Z,97.47
2017-10-23T22:10:22.251Z,97.56
2017-10-23T22:12:50.573Z,97.01
2017-10-23T22:15:18.110Z,96.88
2017-10-23T22:17:45.635Z,96.92
2017-10-23T22:20:13.207Z,96.89
2017-10-23T22:22:40.783Z,97.32
2017-10-23T22:25:08.315Z,97.27
2017-10-23T22:27:35.853Z,97.31
2017-10-23T22:30:03.385Z,97.48
2017-10-23T22:32:31.479Z,97.49
2017-10-23T22:34:59.012Z,97.58
2017-10-23T22:37:26.541Z,97.53
2017-10-23T22:39:54.866Z,97.32
2017-10-23T22:42:22.425Z,97.05
2017-10-23T22:44:50.834Z,96.93
2017-10-23T22:47:18.402Z,96.69
2017-10-23T22:49:45.932Z,96.51
2017-10-23T22:52:13.519Z,96.62
2017-10-23T22:54:41.076Z,96.75
2017-10-23T22:57:08.607Z,97.06
2017-10-23T22:59:36.175Z,97.11
2017-10-23T23:02:04.619Z,97.06
2017-10-23T23:04:32.143Z,97.18
2017-10-23T23:07:00.656Z,97.27
2017-10-23T23:09:28.188Z,97.54
2017-10-23T23:11:55.726Z,97.61
2017-10-23T23:14:23.303Z,97.83
2017-10-23T23:16:50.832Z,97.32
2017-10-23T23:19:18.357Z,97.18
2017-10-23T23:21:45.883Z,97.40
2017-10-23T23:24:14.336Z,97.04
2017-10-23T23:26:41.900Z,97.13
2017-10-23T23:29:09.432Z,97.38
2017-10-23T23:31:36.967Z,97.39
2017-10-23T23:34:05.472Z,97.45
2017-10-23T23:36:33.006Z,97.71
2017-10-23T23:39:00.532Z,97.84
2017-10-23T23:41:28.851Z,97.92
2017-10-23T23:43:56.384Z,97.62
2017-10-23T23:46:23.948Z,97.76
2017-10-23T23:48:51.477Z,97.63
2017-10-23T23:51:19.951Z,97.65
2017-10-23T23:53:47.480Z,97.80
2017-10-23T23:56:15.045Z,97.56
2017-10-23T23:58:42.581Z,97.54
